createdAt,value
2022-08-14T00:01:55.110Z,5.33
2022-08-14T00:04:36.029Z,4.57
2022-08-14T00:07:11.402Z,5.73
2022-08-14T00:09:56.168Z,6.70
2022-08-14T00:12:39.116Z,6.70
2022-08-14T00:15:13.317Z,6.07
2022-08-14T00:17:47.582Z,4.67
2022-08-14T00:20:23.341Z,6.87
2022-08-14T00:22:57.219Z,5.37
2022-08-14T00:25:41.889Z,6.27
2022-08-14T00:28:15.522Z,10.60
2022-08-14T00:30:46.973Z,6.50
2022-08-14T00:33:16.362Z,6.17
2022-08-14T00:36:33.877Z,5.40
2022-08-14T00:38:34.720Z,5.00
2022-08-14T00:41:03.502Z,4.93
2022-08-14T00:43:32.173Z,5.63
2022-08-14T00:46:05.200Z,4.83
2022-08-14T00:48:36.713Z,4.77
2022-08-14T00:51:05.181Z,5.37
2022-08-14T00:53:32.931Z,5.10
2022-08-14T00:56:00.725Z,5.93
2022-08-14T00:58:35.147Z,4.47
2022-08-14T01:01:07.963Z,10.50
2022-08-14T01:03:39.757Z,5.77
2022-08-14T01:06:11.617Z,5.87
2022-08-14T01:08:52.114Z,5.77
2022-08-14T01:11:31.805Z,6.23
2022-08-14T01:14:18.139Z,5.17
2022-08-14T01:16:55.597Z,5.53
2022-08-14T01:19:41.739Z,6.70
2022-08-14T01:22:18.810Z,7.20
2022-08-14T01:24:47.454Z,6.73
2022-08-14T01:27:18.002Z,5.53
2022-08-14T01:30:03.707Z,7.00
2022-08-14T01:32:35.321Z,5.67
2022-08-14T01:35:19.905Z,10.63
2022-08-14T01:37:58.661Z,5.73
2022-08-14T01:40:36.486Z,6.60
2022-08-14T01:43:13.116Z,11.70
2022-08-14T01:45:41.602Z,6.50
2022-08-14T01:48:13.382Z,8.97
2022-08-14T01:50:42.553Z,9.97
2022-08-14T01:53:12.525Z,6.63
2022-08-14T01:55:40.718Z,8.17
2022-08-14T01:58:20.275Z,8.37
2022-08-14T02:00:55.471Z,9.87
2022-08-14T02:03:24.425Z,7.47
2022-08-14T02:06:03.610Z,6.37
2022-08-14T02:08:53.014Z,12.53
2022-08-14T02:11:23.785Z,6.67
2022-08-14T02:13:56.700Z,6.47
2022-08-14T02:16:26.553Z,6.60
2022-08-14T02:18:55.619Z,7.83
2022-08-14T02:21:23.815Z,7.00
2022-08-14T02:23:54.566Z,7.47
2022-08-14T02:26:29.025Z,6.37
2022-08-14T02:29:00.627Z,6.00
2022-08-14T02:31:36.141Z,6.47
2022-08-14T02:34:14.780Z,6.30
2022-08-14T02:37:03.509Z,9.90
2022-08-14T02:39:37.453Z,7.10
2022-08-14T02:42:06.514Z,8.13
2022-08-14T02:44:40.960Z,6.87
2022-08-14T02:47:14.917Z,6.97
2022-08-14T02:49:50.545Z,9.03
2022-08-14T02:52:55.517Z,9.40
2022-08-14T02:55:15.488Z,7.63
2022-08-14T02:57:43.751Z,10.60
2022-08-14T03:00:18.691Z,7.43
2022-08-14T03:02:55.982Z,8.13
2022-08-14T03:05:32.893Z,8.17
2022-08-14T03:08:08.217Z,10.17
2022-08-14T03:10:41.786Z,9.87
2022-08-14T03:13:21.215Z,7.77
2022-08-14T03:15:56.099Z,10.03
2022-08-14T03:18:31.614Z,10.80
2022-08-14T03:21:01.746Z,9.37
2022-08-14T03:23:38.292Z,7.67
2022-08-14T03:26:13.217Z,8.57
2022-08-14T03:28:47.828Z,9.97
2022-08-14T03:31:16.718Z,9.93
2022-08-14T03:33:44.873Z,8.13
2022-08-14T03:37:29.695Z,8.43
2022-08-14T03:39:21.814Z,8.43
2022-08-14T03:41:54.031Z,8.97
2022-08-14T03:45:25.165Z,7.70
2022-08-14T03:47:11.767Z,7.87
2022-08-14T03:49:42.344Z,8.80
2022-08-14T03:52:27.995Z,9.20
2022-08-14T03:54:59.097Z,8.77
2022-08-14T03:57:32.944Z,9.13
2022-08-14T04:00:08.921Z,9.87
2022-08-14T04:02:47.124Z,9.80
2022-08-14T04:05:16.463Z,8.07
2022-08-14T04:08:00.169Z,11.17
2022-08-14T04:10:33.367Z,12.37
2022-08-14T04:13:03.148Z,12.50
2022-08-14T04:15:31.483Z,8.80
2022-08-14T04:17:59.130Z,11.67
2022-08-14T04:20:28.363Z,8.23
2022-08-14T04:22:55.949Z,8.27
2022-08-14T04:25:24.294Z,12.20
2022-08-14T04:28:02.460Z,11.30
2022-08-14T04:30:33.388Z,9.07
2022-08-14T04:33:06.436Z,9.07
2022-08-14T04:35:52.162Z,8.57
2022-08-14T04:38:41.685Z,8.70
2022-08-14T04:41:30.206Z,11.20
2022-08-14T04:43:58.383Z,9.13
2022-08-14T04:46:55.104Z,9.20
2022-08-14T04:49:15.138Z,10.77
2022-08-14T04:51:55.450Z,9.23
2022-08-14T04:54:26.778Z,18.90
2022-08-14T04:56:55.731Z,12.57
2022-08-14T04:59:23.849Z,11.70
2022-08-14T05:01:56.988Z,8.77
2022-08-14T05:04:25.792Z,9.37
2022-08-14T05:06:55.210Z,12.87
2022-08-14T05:09:24.211Z,8.90
2022-08-14T05:11:52.921Z,8.90
2022-08-14T05:14:46.881Z,11.20
2022-08-14T05:17:13.283Z,10.33
2022-08-14T05:19:44.871Z,10.27
2022-08-14T05:22:29.371Z,12.03
2022-08-14T05:24:57.241Z,8.87
2022-08-14T05:27:25.720Z,13.30
2022-08-14T05:29:58.741Z,13.20
2022-08-14T05:32:28.403Z,13.73
2022-08-14T05:34:58.946Z,10.23
2022-08-14T05:37:28.266Z,13.70
2022-08-14T05:39:58.219Z,13.50
2022-08-14T05:42:29.382Z,8.33
2022-08-14T05:45:00.097Z,9.93
2022-08-14T05:47:33.932Z,8.87
2022-08-14T05:50:17.243Z,10.30
2022-08-14T05:52:46.807Z,9.90
2022-08-14T05:55:14.925Z,8.73
2022-08-14T05:57:51.710Z,9.20
2022-08-14T06:00:28.488Z,7.63
2022-08-14T06:03:00.046Z,8.80
2022-08-14T06:05:29.456Z,7.87
2022-08-14T06:07:58.761Z,9.87
2022-08-14T06:10:28.211Z,8.17
2022-08-14T06:12:57.361Z,8.10
2022-08-14T06:15:30.034Z,11.37
2022-08-14T06:18:00.761Z,9.97
2022-08-14T06:20:30.326Z,14.07
2022-08-14T06:22:58.495Z,8.33
2022-08-14T06:25:27.834Z,9.40
2022-08-14T06:27:56.081Z,9.18
2022-08-14T06:30:30.064Z,7.57
2022-08-14T06:33:11.022Z,10.33
2022-08-14T06:35:38.719Z,9.40
2022-08-14T06:38:06.338Z,8.10
2022-08-14T06:40:35.299Z,7.22
2022-08-14T06:43:05.596Z,7.78
2022-08-14T06:45:36.807Z,9.40
2022-08-14T06:48:14.240Z,7.53
2022-08-14T06:50:49.782Z,6.78
2022-08-14T06:53:19.763Z,9.02
2022-08-14T06:55:53.235Z,9.93
2022-08-14T06:58:29.177Z,6.88
2022-08-14T07:01:18.323Z,8.87
2022-08-14T07:04:05.871Z,6.80
2022-08-14T07:06:47.906Z,6.70
2022-08-14T07:09:22.711Z,6.80
2022-08-14T07:11:51.706Z,10.02
2022-08-14T07:14:19.503Z,9.00
2022-08-14T07:16:47.122Z,6.90
2022-08-14T07:19:21.056Z,9.13
2022-08-14T07:21:50.847Z,6.65
2022-08-14T07:24:21.928Z,7.80
2022-08-14T07:26:54.171Z,6.63
2022-08-14T07:29:26.267Z,9.30
2022-08-14T07:31:56.598Z,6.38
2022-08-14T07:34:36.103Z,6.40
2022-08-14T07:37:06.859Z,8.85
2022-08-14T07:39:35.194Z,8.85
2022-08-14T07:42:03.109Z,6.72
2022-08-14T07:44:35.914Z,6.97
2022-08-14T07:47:15.811Z,7.60
2022-08-14T07:49:55.451Z,8.07
2022-08-14T07:52:30.538Z,6.67
2022-08-14T07:54:58.946Z,9.32
2022-08-14T07:57:27.386Z,11.93
2022-08-14T07:59:55.344Z,7.47
2022-08-14T08:02:23.272Z,10.48
2022-08-14T08:04:54.837Z,5.78
2022-08-14T08:07:29.491Z,7.50
2022-08-14T08:09:59.651Z,5.80
2022-08-14T08:12:32.333Z,6.55
2022-08-14T08:15:07.126Z,7.15
2022-08-14T08:17:38.513Z,6.28
2022-08-14T08:20:09.193Z,5.95
2022-08-14T08:22:43.434Z,6.28
2022-08-14T08:25:17.923Z,6.18
2022-08-14T08:27:56.388Z,7.90
2022-08-14T08:30:24.689Z,5.63
2022-08-14T08:32:53.483Z,5.88
2022-08-14T08:35:22.317Z,5.88
2022-08-14T08:38:00.945Z,6.20
2022-08-14T08:40:32.327Z,5.93
2022-08-14T08:43:01.306Z,6.35
2022-08-14T08:45:29.150Z,9.88
2022-08-14T08:47:56.805Z,8.50
2022-08-14T08:53:05.218Z,7.45
2022-08-14T08:55:34.614Z,7.38
2022-08-14T08:58:05.585Z,6.53
2022-08-14T09:00:48.722Z,5.80
2022-08-14T09:03:20.732Z,5.80
2022-08-14T09:05:54.078Z,5.95
2022-08-14T09:08:31.215Z,6.45
2022-08-14T09:11:01.850Z,5.50
2022-08-14T09:13:30.470Z,5.50
2022-08-14T09:15:58.768Z,6.00
2022-08-14T09:18:27.180Z,5.13
2022-08-14T09:20:58.762Z,6.03
2022-08-14T09:23:34.814Z,5.22
2022-08-14T09:26:21.325Z,4.93
2022-08-14T09:28:49.903Z,4.78
2022-08-14T09:31:18.604Z,5.30
2022-08-14T09:33:57.564Z,5.03
2022-08-14T09:37:00.922Z,4.50
2022-08-14T09:39:45.476Z,4.90
2022-08-14T09:42:33.098Z,5.15
2022-08-14T09:45:10.530Z,4.70
2022-08-14T09:47:42.135Z,4.85
2022-08-14T09:50:17.776Z,5.80
2022-08-14T09:52:54.959Z,7.95
2022-08-14T09:55:28.165Z,5.97
2022-08-14T09:58:15.016Z,4.57
2022-08-14T10:00:53.869Z,4.28
2022-08-14T10:03:33.906Z,5.65
2022-08-14T10:06:07.363Z,4.40
2022-08-14T10:08:51.215Z,6.35
2022-08-14T10:11:23.189Z,4.40
2022-08-14T10:13:55.813Z,4.57
2022-08-14T10:16:33.907Z,3.95
2022-08-14T10:19:07.208Z,4.40
2022-08-14T10:21:38.856Z,5.05
2022-08-14T10:24:36.180Z,3.80
2022-08-14T10:27:06.399Z,4.25
2022-08-14T10:29:35.469Z,4.93
2022-08-14T10:32:04.283Z,4.20
2022-08-14T10:34:52.933Z,4.13
2022-08-14T10:37:23.773Z,4.10
2022-08-14T10:40:05.497Z,4.22
2022-08-14T10:42:41.379Z,5.07
2022-08-14T10:45:21.035Z,4.47
2022-08-14T10:48:08.741Z,5.38
2022-08-14T10:50:42.420Z,5.30
2022-08-14T10:53:10.518Z,4.43
2022-08-14T10:55:45.544Z,3.55
2022-08-14T10:58:17.203Z,3.60
2022-08-14T11:00:56.848Z,5.85
2022-08-14T11:03:35.872Z,3.97
2022-08-14T11:06:19.680Z,5.32
2022-08-14T11:08:49.122Z,7.28
2022-08-14T11:11:19.407Z,3.92
2022-08-14T11:13:50.968Z,3.83
2022-08-14T11:16:19.603Z,4.03
2022-08-14T11:18:50.839Z,5.70
2022-08-14T11:21:21.336Z,3.92
2022-08-14T11:23:53.794Z,3.80
2022-08-14T11:26:26.279Z,6.95
2022-08-14T11:28:57.385Z,4.45
2022-08-14T11:31:35.582Z,4.93
2022-08-14T11:34:10.447Z,4.30
2022-08-14T11:37:02.506Z,4.53
2022-08-14T11:39:43.272Z,5.75
2022-08-14T11:42:57.805Z,5.20
2022-08-14T11:45:16.924Z,6.00
2022-08-14T11:48:10.899Z,5.63
2022-08-14T11:50:37.076Z,5.90
2022-08-14T11:53:08.512Z,5.70
2022-08-14T11:55:38.801Z,4.38
2022-08-14T11:58:08.656Z,6.32
2022-08-14T12:00:47.506Z,8.50
2022-08-14T12:03:17.806Z,8.13
2022-08-14T12:05:50.451Z,3.50
2022-08-14T12:08:24.623Z,4.95
2022-08-14T12:10:58.553Z,3.80
2022-08-14T12:13:31.835Z,8.05
2022-08-14T12:16:11.137Z,5.20
2022-08-14T12:18:50.802Z,3.88
2022-08-14T12:21:20.905Z,4.60
2022-08-14T12:23:51.012Z,3.30
2022-08-14T12:26:39.844Z,3.40
2022-08-14T12:29:09.429Z,3.90
2022-08-14T12:31:44.898Z,3.20
2022-08-14T12:34:20.705Z,3.90
2022-08-14T12:36:51.223Z,3.95
2022-08-14T12:39:21.026Z,4.03
2022-08-14T12:41:57.347Z,4.07
2022-08-14T12:44:30.760Z,4.38
2022-08-14T12:47:09.571Z,3.47
2022-08-14T12:49:52.958Z,3.85
2022-08-14T12:52:36.112Z,7.22
2022-08-14T12:55:16.684Z,5.82
2022-08-14T12:57:49.399Z,4.20
2022-08-14T13:00:24.048Z,4.35
2022-08-14T13:02:56.553Z,3.55
2022-08-14T13:05:27.523Z,3.70
2022-08-14T13:07:59.262Z,3.40
2022-08-14T13:10:47.265Z,3.85
2022-08-14T13:13:17.638Z,3.47
2022-08-14T13:15:46.381Z,3.10
2022-08-14T13:18:17.271Z,3.10
2022-08-14T13:20:51.283Z,3.70
2022-08-14T13:23:31.520Z,3.70
2022-08-14T13:26:01.012Z,3.28
2022-08-14T13:28:33.119Z,3.58
2022-08-14T13:31:03.657Z,3.40
2022-08-14T13:33:40.393Z,3.75
2022-08-14T13:36:09.980Z,4.03
2022-08-14T13:38:42.513Z,3.38
2022-08-14T13:41:11.329Z,3.35
2022-08-14T13:43:49.419Z,3.78
2022-08-14T13:46:27.870Z,3.20
2022-08-14T13:48:57.602Z,3.55
2022-08-14T13:51:29.907Z,6.00
2022-08-14T13:54:10.444Z,3.65
2022-08-14T13:56:40.654Z,3.35
2022-08-14T13:59:09.043Z,3.70
2022-08-14T14:01:43.332Z,4.03
2022-08-14T14:04:19.047Z,3.50
2022-08-14T14:06:49.646Z,3.40
2022-08-14T14:09:23.619Z,3.38
2022-08-14T14:11:52.867Z,3.70
2022-08-14T14:14:44.832Z,3.58
2022-08-14T14:17:12.420Z,3.70
2022-08-14T14:19:46.606Z,6.15
2022-08-14T14:22:35.559Z,5.05
2022-08-14T14:25:04.958Z,3.63
2022-08-14T14:27:41.601Z,4.95
2022-08-14T14:30:29.405Z,3.20
2022-08-14T14:33:02.129Z,4.82
2022-08-14T14:35:39.632Z,3.78
2022-08-14T14:38:08.753Z,3.35
2022-08-14T14:40:53.667Z,4.50
2022-08-14T14:43:27.318Z,3.97
2022-08-14T14:45:55.785Z,3.33
2022-08-14T14:48:28.346Z,3.67
2022-08-14T14:51:01.393Z,3.38
2022-08-14T14:53:31.210Z,3.42
2022-08-14T14:56:50.046Z,3.70
2022-08-14T14:58:54.861Z,3.67
2022-08-14T15:01:23.997Z,4.50
2022-08-14T15:03:54.075Z,3.63
2022-08-14T15:06:30.329Z,3.42
2022-08-14T15:09:02.463Z,3.85
2022-08-14T15:11:33.237Z,3.92
2022-08-14T15:14:01.539Z,5.05
2022-08-14T15:16:49.217Z,5.35
2022-08-14T15:19:18.502Z,3.70
2022-08-14T15:21:48.355Z,3.25
2022-08-14T15:24:24.289Z,3.22
2022-08-14T15:26:57.074Z,3.42
2022-08-14T15:29:27.067Z,3.63
2022-08-14T15:31:54.785Z,3.03
2022-08-14T15:34:43.763Z,3.60
2022-08-14T15:37:16.795Z,3.28
2022-08-14T15:39:45.395Z,3.70
2022-08-14T15:42:14.602Z,3.92
2022-08-14T15:44:57.152Z,3.83
2022-08-14T15:47:29.329Z,3.53
2022-08-14T15:49:59.039Z,3.20
2022-08-14T15:52:32.592Z,3.85
2022-08-14T15:55:04.407Z,3.40
2022-08-14T15:57:32.305Z,3.63
2022-08-14T16:00:37.871Z,4.43
2022-08-14T16:03:15.718Z,3.92
2022-08-14T16:05:45.746Z,3.80
2022-08-14T16:08:28.790Z,3.47
2022-08-14T16:10:58.301Z,3.00
2022-08-14T16:13:39.378Z,6.90
2022-08-14T16:16:34.891Z,3.90
2022-08-14T16:18:59.570Z,4.43
2022-08-14T16:21:29.433Z,4.05
2022-08-14T16:24:01.427Z,6.57
2022-08-14T16:26:29.845Z,4.03
2022-08-14T16:29:04.760Z,7.63
2022-08-14T16:31:36.258Z,3.22
2022-08-14T16:34:43.939Z,4.28
2022-08-14T16:36:53.291Z,3.35
2022-08-14T16:39:24.293Z,5.57
2022-08-14T16:41:52.643Z,3.22
2022-08-14T16:44:33.523Z,3.15
2022-08-14T16:47:03.841Z,3.40
2022-08-14T16:49:50.578Z,3.15
2022-08-14T16:52:25.078Z,3.78
2022-08-14T16:54:56.148Z,3.75
2022-08-14T16:57:27.423Z,3.17
2022-08-14T17:00:00.309Z,5.13
2022-08-14T17:02:36.822Z,3.88
2022-08-14T17:05:17.774Z,6.63
2022-08-14T17:08:31.849Z,3.28
2022-08-14T17:11:10.227Z,4.93
2022-08-14T17:13:58.008Z,5.40
2022-08-14T17:16:35.870Z,3.92
2022-08-14T17:19:14.366Z,3.40
2022-08-14T17:21:47.007Z,3.30
2022-08-14T17:24:51.420Z,3.83
2022-08-14T17:27:08.858Z,4.95
2022-08-14T17:29:44.710Z,5.10
2022-08-14T17:32:29.576Z,4.75
2022-08-14T17:35:10.382Z,8.32
2022-08-14T17:37:45.160Z,4.50
2022-08-14T17:40:16.445Z,4.13
2022-08-14T17:43:02.090Z,5.05
2022-08-14T17:45:46.635Z,9.02
2022-08-14T17:49:16.014Z,9.73
2022-08-14T17:51:23.192Z,6.30
2022-08-14T17:53:52.636Z,3.95
2022-08-14T17:56:21.477Z,5.35
2022-08-14T17:58:50.900Z,7.35
2022-08-14T18:01:23.686Z,8.63
2022-08-14T18:03:54.970Z,5.85
2022-08-14T18:06:39.875Z,10.88
2022-08-14T18:09:26.151Z,8.90
2022-08-14T18:11:55.295Z,3.78
2022-08-14T18:14:32.232Z,7.47
2022-08-14T18:17:04.176Z,5.93
2022-08-14T18:19:34.710Z,3.90
2022-08-14T18:22:23.810Z,4.15
2022-08-14T18:24:55.988Z,7.47
2022-08-14T18:27:25.159Z,4.18
2022-08-14T18:29:58.735Z,4.63
2022-08-14T18:32:47.004Z,4.40
2022-08-14T18:35:16.870Z,5.30
2022-08-14T18:37:56.034Z,7.40
2022-08-14T18:40:35.010Z,3.92
2022-08-14T18:43:05.873Z,3.70
2022-08-14T18:45:41.271Z,3.85
2022-08-14T18:48:33.451Z,3.72
2022-08-14T18:51:14.977Z,5.68
2022-08-14T18:53:58.131Z,5.30
2022-08-14T18:56:58.894Z,11.02
2022-08-14T18:59:35.792Z,4.20
2022-08-14T19:02:42.675Z,3.63
2022-08-14T19:05:13.492Z,4.97
2022-08-14T19:07:43.277Z,6.20
2022-08-14T19:10:31.860Z,4.00
2022-08-14T19:13:12.250Z,4.33
2022-08-14T19:15:43.724Z,4.00
2022-08-14T19:18:25.857Z,3.63
2022-08-14T19:20:58.268Z,3.90
2022-08-14T19:23:42.624Z,6.73
2022-08-14T19:26:36.415Z,4.83
2022-08-14T19:29:23.873Z,4.83
2022-08-14T19:31:55.681Z,3.80
2022-08-14T19:34:52.206Z,10.90
2022-08-14T19:37:47.267Z,5.23
2022-08-14T19:40:29.682Z,7.67
2022-08-14T19:42:59.305Z,5.43
2022-08-14T19:45:30.095Z,8.77
2022-08-14T19:48:01.862Z,4.30
2022-08-14T19:50:40.716Z,8.40
2022-08-14T19:53:17.327Z,8.40
2022-08-14T19:55:58.723Z,4.53
2022-08-14T19:58:55.494Z,5.83
2022-08-14T20:01:36.356Z,9.80
2022-08-14T20:04:46.902Z,4.97
2022-08-14T20:06:57.591Z,5.33
2022-08-14T20:11:08.411Z,8.03
2022-08-14T20:12:28.678Z,8.83
2022-08-14T20:15:08.698Z,8.10
2022-08-14T20:17:40.497Z,8.00
2022-08-14T20:20:16.311Z,5.80
2022-08-14T20:22:52.434Z,4.23
2022-08-14T20:25:24.641Z,4.17
2022-08-14T20:27:59.585Z,4.93
2022-08-14T20:30:33.447Z,6.80
2022-08-14T20:33:07.861Z,5.43
2022-08-14T20:35:43.278Z,4.83
2022-08-14T20:38:30.521Z,4.90
2022-08-14T20:41:06.907Z,5.63
2022-08-14T20:43:57.011Z,4.50
2022-08-14T20:46:29.891Z,5.10
2022-08-14T20:49:00.116Z,4.80
2022-08-14T20:51:36.690Z,5.60
2022-08-14T20:54:07.123Z,4.60
2022-08-14T20:56:40.662Z,5.17
2022-08-14T20:59:17.417Z,5.03
2022-08-14T21:01:51.527Z,5.07
2022-08-14T21:04:26.632Z,8.53
2022-08-14T21:07:25.799Z,7.33
2022-08-14T21:10:04.828Z,6.97
2022-08-14T21:12:35.091Z,6.70
2022-08-14T21:15:10.041Z,7.30
2022-08-14T21:17:43.041Z,11.80
2022-08-14T21:20:25.571Z,6.27
2022-08-14T21:22:56.591Z,6.13
2022-08-14T21:25:28.992Z,4.90
2022-08-14T21:28:00.798Z,7.03
2022-08-14T21:30:51.849Z,5.03
2022-08-14T21:33:20.482Z,5.00
2022-08-14T21:35:55.667Z,9.10
2022-08-14T21:38:34.184Z,5.67
2022-08-14T21:41:42.295Z,5.93
2022-08-14T21:44:04.150Z,5.60
2022-08-14T21:46:36.374Z,6.57
2022-08-14T21:49:12.378Z,5.67
2022-08-14T21:51:53.897Z,5.77
2022-08-14T21:54:32.220Z,7.50
2022-08-14T21:57:15.307Z,6.90
2022-08-14T21:59:44.665Z,7.40
2022-08-14T22:02:32.698Z,5.93
2022-08-14T22:05:03.492Z,6.97
2022-08-14T22:07:32.301Z,9.43
2022-08-14T22:10:05.041Z,6.93
2022-08-14T22:12:57.235Z,6.50
2022-08-14T22:15:22.420Z,5.77
2022-08-14T22:17:54.265Z,6.30
2022-08-14T22:20:27.957Z,9.97
2022-08-14T22:22:56.762Z,9.73
2022-08-14T22:25:33.415Z,6.27
2022-08-14T22:28:03.025Z,5.93
2022-08-14T22:30:31.468Z,8.87
2022-08-14T22:33:00.238Z,5.60
2022-08-14T22:35:30.070Z,7.40
2022-08-14T22:38:35.036Z,6.93
2022-08-14T22:41:05.414Z,6.43
2022-08-14T22:43:35.970Z,5.60
2022-08-14T22:46:14.557Z,7.67
2022-08-14T22:48:44.985Z,7.10
2022-08-14T22:51:15.969Z,8.27
2022-08-14T22:53:48.353Z,7.00
2022-08-14T22:56:21.469Z,11.00
2022-08-14T22:58:53.906Z,7.50
2022-08-14T23:01:55.470Z,7.10
2022-08-14T23:04:35.096Z,6.70
2022-08-14T23:07:22.222Z,7.53
2022-08-14T23:09:56.025Z,7.53
2022-08-14T23:12:28.259Z,11.40
2022-08-14T23:15:05.954Z,7.73
2022-08-14T23:17:39.570Z,8.20
2022-08-14T23:20:19.164Z,7.10
2022-08-14T23:22:51.493Z,7.70
2022-08-14T23:25:53.184Z,8.43
2022-08-14T23:28:34.010Z,8.33
2022-08-14T23:30:56.310Z,9.57
2022-08-14T23:33:25.691Z,6.60
2022-08-14T23:35:58.811Z,6.83
2022-08-14T23:38:30.121Z,6.77
2022-08-14T23:41:00.798Z,8.50
2022-08-14T23:43:31.201Z,6.43
2022-08-14T23:45:59.751Z,10.23
2022-08-14T23:48:28.642Z,7.17
2022-08-14T23:50:58.678Z,5.80
2022-08-14T23:53:47.260Z,7.40
2022-08-14T23:56:18.378Z,7.00
2022-08-14T23:58:49.368Z,7.97
